Time;durP1;ratioP1;P1;durP2;ratioP2;P2;SDS_P1;SDS_P2;PMS_P1;PMS_P2;Temp;Humidity;BMP_temperature;BMP_pressure;BME280_temperature;BME280_humidity;BME280_pressure;Samples;Min_cycle;Max_cycle;Signal;HPM_P1;HPM_P2
2022/10/15 00:02:37;;;;;;;68.72;44.30;;;;;;;8.14;100.00;98756.27;2212077;80;20984;-91
2022/10/15 00:05:38;;;;;;;71.60;43.75;;;;;;;8.06;100.00;98744.52;2211957;80;20952;-90
2022/10/15 00:08:39;;;;;;;68.87;42.65;;;;;;;8.01;100.00;98749.39;2199644;80;21006;-91
2022/10/15 00:11:39;;;;;;;71.92;45.45;;;;;;;7.98;100.00;98753.16;2215480;80;20993;-90
2022/10/15 00:14:40;;;;;;;70.97;42.20;;;;;;;7.97;100.00;98746.31;2215619;80;21017;-90
2022/10/15 00:17:41;;;;;;;67.10;42.73;;;;;;;7.97;100.00;98752.34;2211352;80;21568;-91
2022/10/15 00:20:42;;;;;;;67.20;41.80;;;;;;;7.99;100.00;98748.26;2212198;80;21012;-91
2022/10/15 00:23:42;;;;;;;71.82;43.58;;;;;;;8.01;100.00;98747.59;2191855;80;20949;-91
2022/10/15 00:26:43;;;;;;;66.45;41.35;;;;;;;8.04;100.00;98752.97;2173787;82;21012;-91
2022/10/15 00:29:44;;;;;;;62.83;41.08;;;;;;;8.06;100.00;98744.03;2173580;82;21008;-91
2022/10/15 00:32:44;;;;;;;63.28;40.40;;;;;;;8.07;100.00;98739.62;2175613;80;20949;-91
2022/10/15 00:35:45;;;;;;;62.88;40.58;;;;;;;8.06;100.00;98740.12;2212910;80;21036;-92
2022/10/15 00:38:46;;;;;;;66.17;43.08;;;;;;;8.07;100.00;98743.05;2191127;80;20960;-91
2022/10/15 00:41:47;;;;;;;64.85;40.67;;;;;;;8.08;100.00;98743.37;2180495;82;20959;-91
2022/10/15 00:44:47;;;;;;;67.30;42.65;;;;;;;8.07;100.00;98739.14;2207969;80;20945;-91
2022/10/15 00:47:48;;;;;;;64.37;40.43;;;;;;;8.09;100.00;98733.75;2186259;81;20930;-91
2022/10/15 00:50:49;;;;;;;71.12;42.83;;;;;;;8.10;100.00;98737.50;2184170;81;21059;-91
2022/10/15 00:53:49;;;;;;;69.77;41.58;;;;;;;8.11;100.00;98731.80;2203206;80;20934;-91
2022/10/15 00:56:50;;;;;;;61.50;40.30;;;;;;;8.11;100.00;98736.52;2222747;80;20953;-92
2022/10/15 00:59:51;;;;;;;63.73;40.33;;;;;;;8.11;100.00;98726.09;2223574;80;21012;-91
2022/10/15 01:02:51;;;;;;;61.53;39.08;;;;;;;8.11;100.00;98720.05;2221580;80;21023;-92
2022/10/15 01:05:52;;;;;;;66.57;40.40;;;;;;;8.12;100.00;98720.37;2222168;79;21008;-92
2022/10/15 01:08:53;;;;;;;68.20;41.35;;;;;;;8.10;100.00;98723.16;2200805;79;20988;-91
2022/10/15 01:11:54;;;;;;;64.72;41.05;;;;;;;8.10;100.00;98719.24;2183587;81;21095;-91
2022/10/15 01:14:54;;;;;;;66.77;39.40;;;;;;;8.11;100.00;98708.32;2214660;80;20965;-91
2022/10/15 01:17:55;;;;;;;56.25;38.73;;;;;;;8.11;100.00;98709.62;2222271;79;20989;-90
2022/10/15 01:20:56;;;;;;;60.70;38.60;;;;;;;8.08;100.00;98702.95;2222005;80;21013;-91
2022/10/15 01:23:57;;;;;;;61.30;38.45;;;;;;;8.08;100.00;98693.83;2211896;79;21508;-91
2022/10/15 01:26:58;;;;;;;60.05;38.17;;;;;;;8.08;100.00;98697.73;2183476;81;21515;-91
2022/10/15 01:29:58;;;;;;;62.60;38.23;;;;;;;8.11;100.00;98692.18;2183189;82;21030;-90
2022/10/15 01:32:59;;;;;;;60.15;38.75;;;;;;;8.12;100.00;98685.17;2183570;81;21497;-91
2022/10/15 01:36:00;;;;;;;57.17;37.03;;;;;;;8.10;100.00;98684.53;2204791;80;21003;-91
2022/10/15 01:39:01;;;;;;;61.63;39.03;;;;;;;8.11;100.00;98692.18;2209064;79;21321;-91
2022/10/15 01:42:01;;;;;;;60.73;39.40;;;;;;;8.13;100.00;98689.41;2216386;80;21012;-92
2022/10/15 01:45:02;;;;;;;63.48;42.23;;;;;;;8.15;100.00;98686.16;2201716;80;20996;-91
2022/10/15 01:48:03;;;;;;;60.52;38.48;;;;;;;8.18;100.00;98682.73;2178538;82;21030;-90
2022/10/15 01:51:03;;;;;;;59.45;37.65;;;;;;;8.23;100.00;98690.89;2174654;82;21484;-91
2022/10/15 01:54:04;;;;;;;59.65;38.95;;;;;;;8.25;100.00;98686.80;2197517;80;20929;-91
2022/10/15 01:57:05;;;;;;;57.43;37.67;;;;;;;8.27;100.00;98687.45;2212519;80;20961;-91
2022/10/15 02:00:06;;;;;;;59.30;39.25;;;;;;;8.31;100.00;98689.22;2212071;80;21422;-91
2022/10/15 02:03:06;;;;;;;60.65;38.50;;;;;;;8.36;100.00;98686.98;2209947;80;20957;-91
2022/10/15 02:06:08;;;;;;;59.88;38.53;;;;;;;8.38;100.00;98687.12;2212126;80;21520;-92
2022/10/15 02:09:09;;;;;;;58.58;37.90;;;;;;;8.40;100.00;98678.64;2180309;80;21048;-92
2022/10/15 02:12:10;;;;;;;56.10;38.50;;;;;;;8.46;100.00;98670.16;2162854;81;21510;-92
2022/10/15 02:15:11;;;;;;;55.63;37.73;;;;;;;8.49;100.00;98673.72;2181582;80;20950;-92
2022/10/15 02:18:11;;;;;;;56.08;39.18;;;;;;;8.53;100.00;98669.81;2212701;80;21021;-90
2022/10/15 02:21:12;;;;;;;60.35;38.15;;;;;;;8.62;100.00;98669.80;2212235;80;20945;-90
2022/10/15 02:24:13;;;;;;;53.02;37.33;;;;;;;8.64;100.00;98665.22;2211119;80;21001;-90
2022/10/15 02:27:13;;;;;;;55.38;36.45;;;;;;;8.69;100.00;98668.15;2212236;80;21009;-89
2022/10/15 02:30:14;;;;;;;53.48;37.03;;;;;;;8.73;100.00;98670.23;2212088;80;20978;-89
2022/10/15 02:33:15;;;;;;;56.20;38.50;;;;;;;8.78;100.00;98660.12;2199733;80;21004;-88
2022/10/15 02:36:16;;;;;;;55.15;36.53;;;;;;;8.82;100.00;98661.89;2176973;80;20981;-87
2022/10/15 02:39:17;;;;;;;60.38;37.60;;;;;;;8.89;100.00;98661.53;2195728;79;20973;-87
2022/10/15 02:42:20;;;;;;;50.52;35.58;;;;;;;8.92;100.00;98659.88;2223467;79;21036;-87
2022/10/15 02:45:20;;;;;;;54.08;36.25;;;;;;;8.99;100.00;98652.19;2191857;80;21120;-88
2022/10/15 02:48:21;;;;;;;52.08;35.55;;;;;;;9.03;100.00;98656.08;2184797;81;20953;-87
2022/10/15 02:51:21;;;;;;;50.88;34.78;;;;;;;9.08;100.00;98649.36;2184352;81;21027;-87
2022/10/15 02:54:22;;;;;;;53.60;37.13;;;;;;;9.12;100.00;98649.33;2184360;80;20959;-88
2022/10/15 02:57:23;;;;;;;57.43;37.73;;;;;;;9.16;100.00;98645.90;2201094;80;21329;-88
2022/10/15 03:00:23;;;;;;;53.05;35.60;;;;;;;9.18;100.00;98645.23;2222069;80;20996;-88
2022/10/15 03:03:24;;;;;;;52.50;36.68;;;;;;;9.22;100.00;98641.27;2220794;79;20946;-88
2022/10/15 03:06:25;;;;;;;59.20;37.05;;;;;;;9.23;100.00;98633.75;2222057;80;20992;-87
2022/10/15 03:09:25;;;;;;;49.80;34.73;;;;;;;9.26;100.00;98628.70;2189914;80;20984;-87
2022/10/15 03:12:26;;;;;;;52.75;34.63;;;;;;;9.27;100.00;98629.02;2179040;80;20960;-88
2022/10/15 03:15:27;;;;;;;50.95;36.35;;;;;;;9.27;100.00;98630.32;2221672;80;20992;-87
2022/10/15 03:18:28;;;;;;;49.90;33.55;;;;;;;9.25;100.00;98626.58;2221898;79;21032;-87
2022/10/15 03:21:29;;;;;;;51.65;35.90;;;;;;;9.23;100.00;98624.61;2221875;80;20929;-87
2022/10/15 03:24:30;;;;;;;50.08;34.78;;;;;;;9.22;100.00;98619.56;2193105;79;21036;-87
2022/10/15 03:27:31;;;;;;;53.25;35.33;;;;;;;9.20;100.00;98609.78;2183473;81;21040;-87
2022/10/15 03:30:32;;;;;;;45.12;33.10;;;;;;;9.17;100.00;98614.87;2183407;81;21020;-87
2022/10/15 03:33:32;;;;;;;49.08;34.38;;;;;;;9.15;100.00;98610.81;2187873;80;20984;-87
2022/10/15 03:36:33;;;;;;;51.08;35.78;;;;;;;9.10;100.00;98606.91;2183375;81;21039;-87
2022/10/15 03:39:34;;;;;;;54.20;36.30;;;;;;;9.08;100.00;98606.77;2212228;79;20996;-87
2022/10/15 03:42:35;;;;;;;57.65;36.93;;;;;;;9.06;100.00;98606.94;2212018;80;21052;-87
2022/10/15 03:45:35;;;;;;;51.60;35.63;;;;;;;9.02;100.00;98612.17;2174697;80;21492;-87
2022/10/15 03:48:36;;;;;;;56.40;36.95;;;;;;;9.00;100.00;98608.11;2174538;82;21457;-87
2022/10/15 03:51:37;;;;;;;54.10;36.73;;;;;;;8.97;100.00;98609.77;2175045;82;20997;-87
2022/10/15 03:54:37;;;;;;;54.65;35.90;;;;;;;8.94;100.00;98614.82;2203083;80;21492;-87
2022/10/15 03:57:38;;;;;;;51.13;35.05;;;;;;;8.92;100.00;98616.80;2212117;80;20906;-87
2022/10/15 04:00:39;;;;;;;50.05;34.15;;;;;;;8.88;100.00;98612.10;2207451;80;21017;-88
2022/10/15 04:03:40;;;;;;;52.70;35.28;;;;;;;8.84;100.00;98611.12;2173837;80;21008;-87
2022/10/15 04:06:40;;;;;;;53.45;35.03;;;;;;;8.78;100.00;98604.48;2166731;80;20972;-87
2022/10/15 04:09:41;;;;;;;49.67;34.08;;;;;;;8.74;100.00;98608.40;2172423;80;20971;-87
2022/10/15 04:12:42;;;;;;;51.83;34.63;;;;;;;8.70;100.00;98613.16;2173905;82;20991;-87
2022/10/15 04:15:43;;;;;;;52.60;35.13;;;;;;;8.70;100.00;98612.34;2173912;82;20991;-87
2022/10/15 04:18:43;;;;;;;48.23;34.43;;;;;;;8.68;100.00;98612.48;2183662;80;21033;-87
2022/10/15 04:21:44;;;;;;;50.28;35.92;;;;;;;8.66;100.00;98614.47;2173868;80;20961;-87
2022/10/15 04:24:45;;;;;;;50.30;35.40;;;;;;;8.65;100.00;98612.03;2177456;80;20992;-87
2022/10/15 04:27:45;;;;;;;54.73;33.58;;;;;;;8.66;100.00;98604.52;2174827;80;21057;-87
2022/10/15 04:30:46;;;;;;;47.23;32.58;;;;;;;8.68;100.00;98603.35;2173970;81;20977;-88
2022/10/15 04:33:47;;;;;;;53.38;35.95;;;;;;;8.68;100.00;98599.93;2204459;80;20961;-88
2022/10/15 04:36:48;;;;;;;55.88;35.75;;;;;;;8.70;100.00;98597.99;2212259;80;20946;-87
2022/10/15 04:39:48;;;;;;;51.55;33.98;;;;;;;8.73;100.00;98595.03;2177862;80;20981;-87
2022/10/15 04:42:49;;;;;;;55.98;36.17;;;;;;;8.75;100.00;98594.36;2194508;80;21000;-87
2022/10/15 04:45:50;;;;;;;52.40;35.38;;;;;;;8.78;100.00;98595.34;2188107;80;21031;-87
2022/10/15 04:48:51;;;;;;;51.15;34.92;;;;;;;8.81;100.00;98597.60;2185217;81;20960;-87
2022/10/15 04:51:52;;;;;;;56.55;37.55;;;;;;;8.87;100.00;98594.31;2219720;80;21029;-87
2022/10/15 04:54:53;;;;;;;53.85;36.73;;;;;;;8.92;100.00;98591.98;2223243;79;20941;-87
2022/10/15 04:57:53;;;;;;;53.10;36.42;;;;;;;8.97;100.00;98593.61;2222176;79;21013;-86
2022/10/15 05:00:54;;;;;;;53.08;36.13;;;;;;;9.01;100.00;98593.56;2220698;80;20972;-85
2022/10/15 05:03:55;;;;;;;50.63;33.90;;;;;;;9.06;100.00;98588.66;2183413;81;21249;-87
2022/10/15 05:06:55;;;;;;;52.67;36.85;;;;;;;9.10;100.00;98588.62;2188648;80;21072;-87
2022/10/15 05:09:56;;;;;;;54.50;36.30;;;;;;;9.15;100.00;98589.42;2183714;80;21485;-87
2022/10/15 05:12:57;;;;;;;59.45;35.68;;;;;;;9.20;100.00;98586.27;2209086;80;20957;-87
2022/10/15 05:15:58;;;;;;;54.13;35.70;;;;;;;9.26;100.00;98582.48;2200922;80;20925;-87
2022/10/15 05:18:58;;;;;;;54.85;34.38;;;;;;;9.33;100.00;98578.19;2183462;81;20940;-87
2022/10/15 05:21:59;;;;;;;47.78;32.08;;;;;;;9.38;100.00;98581.08;2195148;80;20977;-87
2022/10/15 05:25:00;;;;;;;46.48;32.65;;;;;;;9.45;100.00;98586.42;2186571;80;20969;-87
2022/10/15 05:28:00;;;;;;;46.35;32.23;;;;;;;9.52;100.00;98589.16;2187238;80;20909;-88
2022/10/15 05:31:01;;;;;;;45.78;31.80;;;;;;;9.59;100.00;98586.95;2183512;81;21515;-87
2022/10/15 05:34:02;;;;;;;45.00;31.20;;;;;;;9.64;100.00;98578.59;2193554;80;21548;-87
2022/10/15 05:37:02;;;;;;;41.80;31.05;;;;;;;9.67;100.00;98575.12;2183342;81;20980;-87
2022/10/15 05:40:03;;;;;;;44.85;31.50;;;;;;;9.70;100.00;98584.43;2183666;80;20996;-87
2022/10/15 05:43:04;;;;;;;43.38;30.10;;;;;;;9.72;100.00;98579.02;2199844;80;20960;-88
2022/10/15 05:46:05;;;;;;;41.13;30.55;;;;;;;9.75;100.00;98583.88;2222129;80;20984;-88
2022/10/15 05:49:05;;;;;;;43.20;30.55;;;;;;;9.77;100.00;98582.70;2196659;80;21004;-87
2022/10/15 05:52:06;;;;;;;43.63;30.52;;;;;;;9.83;100.00;98578.09;2223347;80;20934;-88
2022/10/15 05:55:07;;;;;;;37.13;28.07;;;;;;;9.89;100.00;98579.19;2181305;79;21043;-87
2022/10/15 05:58:08;;;;;;;37.75;28.77;;;;;;;9.94;100.00;98586.80;2179111;82;20975;-87
2022/10/15 06:01:08;;;;;;;40.10;27.15;;;;;;;9.99;100.00;98590.20;2215862;80;20945;-88
2022/10/15 06:04:09;;;;;;;39.85;28.25;;;;;;;10.05;100.00;98599.13;2219801;80;20976;-89
2022/10/15 06:07:10;;;;;;;40.58;27.27;;;;;;;10.12;100.00;98598.73;2204482;79;21436;-85
2022/10/15 06:10:10;;;;;;;42.55;29.50;;;;;;;10.16;100.00;98603.94;2210200;80;20980;-87
2022/10/15 06:13:11;;;;;;;41.73;28.17;;;;;;;10.18;100.00;98604.56;2213713;79;20992;-88
2022/10/15 06:16:11;;;;;;;34.13;25.97;;;;;;;10.16;100.00;98606.06;2186728;80;21041;-88
2022/10/15 06:19:14;;;;;;;39.38;28.27;;;;;;;10.13;100.00;98602.97;2183767;81;20984;-91
2022/10/15 06:22:14;;;;;;;34.73;26.02;;;;;;;10.12;100.00;98611.31;2185484;80;21440;-85
2022/10/15 06:25:15;;;;;;;35.83;26.93;;;;;;;10.19;100.00;98612.23;2231973;78;21045;-89
2022/10/15 06:28:15;;;;;;;38.98;28.10;;;;;;;10.27;100.00;98613.98;2144097;81;21415;-90
2022/10/15 06:31:16;;;;;;;38.80;26.40;;;;;;;10.30;100.00;98612.31;2151403;82;20940;-95
2022/10/15 06:34:17;;;;;;;39.75;27.13;;;;;;;10.37;100.00;98616.34;2179929;82;20964;-92
2022/10/15 06:37:20;;;;;;;40.78;27.93;;;;;;;10.46;100.00;98617.38;2168015;82;21072;-94
2022/10/15 06:40:20;;;;;;;39.58;27.70;;;;;;;10.64;100.00;98609.64;2140657;83;20994;-91
2022/10/15 06:43:21;;;;;;;35.95;25.92;;;;;;;10.82;100.00;98608.77;2128525;83;20999;-96
2022/10/15 06:46:22;;;;;;;36.60;25.75;;;;;;;11.01;100.00;98605.56;2129131;83;21002;-93
2022/10/15 06:49:22;;;;;;;34.43;26.57;;;;;;;11.21;100.00;98607.08;2154856;81;21026;-95
2022/10/15 06:52:24;;;;;;;35.52;26.07;;;;;;;11.45;100.00;98616.40;2167821;82;21553;-91
2022/10/15 06:55:24;;;;;;;38.98;25.15;;;;;;;11.62;100.00;98617.77;2169267;82;20951;-92
2022/10/15 06:58:25;;;;;;;35.90;25.70;;;;;;;11.74;100.00;98611.51;2154596;81;21247;-86
2022/10/15 07:01:26;;;;;;;32.65;23.10;;;;;;;11.86;100.00;98614.45;2133635;82;20912;-93
2022/10/15 07:04:27;;;;;;;32.67;25.17;;;;;;;11.93;100.00;98617.44;2107756;83;21054;-90
2022/10/15 07:07:30;;;;;;;33.18;24.10;;;;;;;12.01;100.00;98617.00;2132294;82;20997;-96
2022/10/15 07:10:34;;;;;;;31.12;22.32;;;;;;;12.00;100.00;98613.56;2106590;83;21027;-92
2022/10/15 07:13:36;;;;;;;35.43;24.63;;;;;;;11.96;100.00;98607.87;2133761;82;21165;-95
2022/10/15 07:16:38;;;;;;;30.27;22.45;;;;;;;11.91;100.00;98615.52;2081806;83;20999;-94
2022/10/15 07:19:39;;;;;;;35.00;23.92;;;;;;;11.90;100.00;98611.77;2105946;83;21486;-95
2022/10/15 07:22:40;;;;;;;32.25;24.18;;;;;;;11.96;100.00;98621.49;2133799;82;20970;-95
2022/10/15 07:25:41;;;;;;;31.77;23.98;;;;;;;12.08;100.00;98623.11;2166049;82;22076;-92
2022/10/15 07:28:41;;;;;;;34.80;24.72;;;;;;;12.26;100.00;98620.81;2165710;82;21026;-90
2022/10/15 07:31:42;;;;;;;34.10;24.15;;;;;;;12.42;100.00;98620.98;2163781;82;21030;-93
2022/10/15 07:34:43;;;;;;;31.85;23.98;;;;;;;12.51;100.00;98622.45;2132471;82;21049;-86
2022/10/15 07:37:43;;;;;;;30.57;22.32;;;;;;;12.66;100.00;98621.03;2157612;82;21009;-88
2022/10/15 07:40:44;;;;;;;34.53;23.70;;;;;;;12.81;100.00;98613.33;2120765;83;20986;-86
2022/10/15 07:43:45;;;;;;;28.07;21.70;;;;;;;12.95;100.00;98610.73;2145380;83;21080;-87
2022/10/15 07:46:46;;;;;;;30.60;21.80;;;;;;;13.06;100.00;98610.16;2110551;83;21025;-90
2022/10/15 07:49:46;;;;;;;28.98;22.55;;;;;;;13.20;100.00;98611.05;2110667;83;20965;-88
2022/10/15 07:52:47;;;;;;;27.15;21.57;;;;;;;13.30;100.00;98612.79;2110678;83;21030;-90
2022/10/15 07:55:48;;;;;;;29.27;22.35;;;;;;;13.46;100.00;98607.16;2153269;83;21536;-90
2022/10/15 07:58:52;;;;;;;26.55;21.37;;;;;;;13.66;100.00;98611.93;2166599;81;20984;-88
2022/10/15 08:01:52;;;;;;;26.50;20.50;;;;;;;13.81;100.00;98607.80;2195631;81;20967;-87
2022/10/15 08:04:53;;;;;;;26.75;20.70;;;;;;;13.92;100.00;98611.63;2164244;80;21018;-90
2022/10/15 08:07:54;;;;;;;31.20;22.93;;;;;;;14.04;100.00;98613.95;2164124;81;20960;-88
2022/10/15 08:10:55;;;;;;;27.00;20.43;;;;;;;14.15;100.00;98612.00;2192174;81;21002;-92
2022/10/15 08:13:55;;;;;;;25.20;20.37;;;;;;;14.27;100.00;98621.42;2191222;80;21062;-91
2022/10/15 08:16:56;;;;;;;24.45;18.52;;;;;;;14.39;100.00;98615.02;2191585;81;20967;-90
2022/10/15 08:19:57;;;;;;;23.27;19.12;;;;;;;14.50;100.00;98615.72;2192800;81;20983;-90
2022/10/15 08:22:58;;;;;;;26.23;19.75;;;;;;;14.59;100.00;98619.75;2177400;81;20979;-93
2022/10/15 08:25:59;;;;;;;23.40;18.85;;;;;;;14.73;100.00;98621.84;2191444;81;20984;-91
2022/10/15 08:29:00;;;;;;;22.75;18.85;;;;;;;14.83;100.00;98623.53;2190389;81;21094;-90
2022/10/15 08:32:00;;;;;;;26.33;19.87;;;;;;;15.00;100.00;98613.33;2191356;81;20971;-91
2022/10/15 08:35:01;;;;;;;24.32;19.17;;;;;;;15.14;100.00;98620.13;2191641;81;21509;-93
2022/10/15 08:38:02;;;;;;;24.57;18.80;;;;;;;15.28;100.00;98622.20;2191565;81;20968;-92
2022/10/15 08:41:03;;;;;;;23.90;18.15;;;;;;;15.38;100.00;98625.70;2202644;79;20993;-94
2022/10/15 08:44:04;;;;;;;20.62;17.60;;;;;;;15.50;100.00;98627.44;2253973;78;21024;-92
2022/10/15 08:47:04;;;;;;;21.35;17.48;;;;;;;15.60;100.00;98624.32;2244300;79;20957;-90
2022/10/15 08:50:05;;;;;;;26.65;18.98;;;;;;;15.69;100.00;98630.18;2217294;80;21516;-92
2022/10/15 08:53:06;;;;;;;21.33;17.95;;;;;;;15.77;100.00;98639.16;2235281;79;21001;-92
2022/10/15 08:56:06;;;;;;;21.25;16.82;;;;;;;15.91;100.00;98637.53;2238864;79;21004;-91
2022/10/15 08:59:07;;;;;;;23.87;18.20;;;;;;;16.01;100.00;98635.73;2254191;79;21009;-89
2022/10/15 09:02:09;;;;;;;21.65;18.20;;;;;;;16.04;100.00;98636.61;2225571;79;21012;-93
2022/10/15 09:05:10;;;;;;;25.27;17.87;;;;;;;16.07;100.00;98639.31;2246851;78;20922;-93
2022/10/15 09:08:11;;;;;;;20.00;17.62;;;;;;;16.09;100.00;98642.55;2220342;79;20983;-89
2022/10/15 09:11:12;;;;;;;21.33;17.73;;;;;;;16.09;100.00;98638.58;2217363;79;20981;-92
2022/10/15 09:14:12;;;;;;;22.17;17.15;;;;;;;16.11;100.00;98637.88;2258891;78;20962;-91
2022/10/15 09:17:13;;;;;;;21.33;17.55;;;;;;;16.12;100.00;98635.53;2253581;79;20991;-94
2022/10/15 09:20:14;;;;;;;22.48;17.50;;;;;;;16.12;100.00;98636.84;2248820;78;20948;-91
2022/10/15 09:23:15;;;;;;;19.50;16.73;;;;;;;16.18;100.00;98640.76;2210725;79;20984;-90
2022/10/15 09:26:16;;;;;;;22.77;17.77;;;;;;;16.26;100.00;98637.00;2218241;79;20964;-91
2022/10/15 09:29:17;;;;;;;21.52;17.17;;;;;;;16.36;100.00;98633.86;2217866;80;20969;-92
2022/10/15 09:32:17;;;;;;;24.50;18.02;;;;;;;16.47;100.00;98639.25;2250267;79;20957;-94
2022/10/15 09:35:21;;;;;;;20.15;16.48;;;;;;;16.63;100.00;98635.72;2257188;78;20945;-94
2022/10/15 09:38:21;;;;;;;21.27;16.52;;;;;;;16.77;100.00;98638.55;2257544;79;21041;-94
2022/10/15 09:41:22;;;;;;;18.42;16.48;;;;;;;16.87;100.00;98643.32;2251742;79;21049;-94
2022/10/15 09:44:23;;;;;;;20.43;16.40;;;;;;;16.93;100.00;98649.05;2222877;79;20972;-91
2022/10/15 09:47:23;;;;;;;17.55;15.75;;;;;;;16.94;100.00;98645.37;2222198;80;20976;-94
2022/10/15 09:50:24;;;;;;;19.25;17.15;;;;;;;16.92;100.00;98646.92;2222208;79;20945;-90
2022/10/15 09:53:25;;;;;;;22.93;17.50;;;;;;;16.93;100.00;98649.86;2222492;80;21599;-93
2022/10/15 09:56:26;;;;;;;23.65;17.37;;;;;;;16.96;100.00;98647.28;2222521;80;20946;-93
2022/10/15 09:59:27;;;;;;;19.70;16.27;;;;;;;17.01;100.00;98650.89;2222613;80;21005;-92
2022/10/15 10:02:27;;;;;;;18.75;15.58;;;;;;;17.10;100.00;98651.87;2222532;80;20973;-93
2022/10/15 10:05:28;;;;;;;20.17;16.67;;;;;;;17.29;100.00;98648.19;2222505;80;21491;-92
2022/10/15 10:08:29;;;;;;;18.85;16.87;;;;;;;17.50;100.00;98644.23;2224394;79;21153;-96
2022/10/15 10:11:30;;;;;;;19.20;17.25;;;;;;;17.74;100.00;98639.81;2225013;79;20938;-93
2022/10/15 10:14:30;;;;;;;19.57;16.12;;;;;;;17.94;100.00;98643.50;2219604;78;20907;-92
2022/10/15 10:17:31;;;;;;;20.05;16.70;;;;;;;18.17;100.00;98639.53;2161975;81;20979;-92
2022/10/15 10:20:32;;;;;;;18.25;16.30;;;;;;;18.39;100.00;98637.93;2155325;82;20996;-90
2022/10/15 10:23:33;;;;;;;18.85;16.95;;;;;;;18.62;100.00;98637.08;2161049;82;21034;-93
2022/10/15 10:26:34;;;;;;;17.35;15.28;;;;;;;18.80;100.00;98636.69;2150590;82;21529;-93
2022/10/15 10:29:35;;;;;;;17.85;15.95;;;;;;;18.94;100.00;98644.16;2141372;83;21022;-92
2022/10/15 10:32:37;;;;;;;23.83;16.87;;;;;;;19.00;100.00;98640.54;2173259;80;21441;-90
2022/10/15 10:35:37;;;;;;;23.87;16.82;;;;;;;18.97;100.00;98641.54;2149725;81;21000;-90
2022/10/15 10:38:39;;;;;;;21.87;16.77;;;;;;;18.93;100.00;98644.39;2151151;83;21417;-88
2022/10/15 10:41:39;;;;;;;19.37;16.95;;;;;;;18.96;100.00;98642.59;2212174;79;21048;-90
2022/10/15 10:44:40;;;;;;;18.23;16.40;;;;;;;19.02;100.00;98646.96;2241252;79;20997;-89
2022/10/15 10:47:41;;;;;;;18.62;16.57;;;;;;;19.09;100.00;98651.59;2222511;79;20961;-90
2022/10/15 10:50:42;;;;;;;18.32;16.42;;;;;;;19.19;100.00;98647.00;2263494;77;21053;-90
2022/10/15 10:53:43;;;;;;;20.23;16.10;;;;;;;19.23;100.00;98653.45;2257746;77;21044;-90
2022/10/15 10:56:44;;;;;;;18.57;16.50;;;;;;;19.22;100.00;98653.18;2246883;77;20969;-93
2022/10/15 10:59:44;;;;;;;19.00;17.07;;;;;;;19.20;100.00;98651.26;2222405;79;21397;-90
2022/10/15 11:02:45;;;;;;;22.35;17.07;;;;;;;19.19;100.00;98657.09;2245230;79;20996;-88
2022/10/15 11:05:45;;;;;;;19.57;17.48;;;;;;;19.15;100.00;98655.96;2220271;79;20962;-91
2022/10/15 11:08:46;;;;;;;18.57;16.60;;;;;;;19.15;100.00;98657.29;2242050;77;21022;-87
2022/10/15 11:11:47;;;;;;;18.75;16.85;;;;;;;19.14;100.00;98653.03;2247085;77;20991;-92
2022/10/15 11:14:47;;;;;;;17.98;16.07;;;;;;;19.23;100.00;98652.13;2235102;79;20962;-90
2022/10/15 11:17:48;;;;;;;18.67;16.30;;;;;;;19.31;100.00;98652.56;2229370;79;21017;-88
2022/10/15 11:20:49;;;;;;;19.92;17.15;;;;;;;19.38;100.00;98640.45;2247120;79;20981;-91
2022/10/15 11:23:50;;;;;;;20.52;16.40;;;;;;;19.36;100.00;98637.23;2224656;79;21039;-88
2022/10/15 11:26:52;;;;;;;29.15;21.97;;;;;;;19.30;100.00;98644.84;2224615;79;21318;-90
2022/10/15 11:29:53;;;;;;;34.08;27.17;;;;;;;19.19;100.00;98647.80;2232362;79;21052;-90
2022/10/15 11:32:57;;;;;;;33.67;27.05;;;;;;;19.08;100.00;98643.34;2217916;80;21079;-92
2022/10/15 11:35:56;;;;;;;29.27;23.15;;;;;;;19.04;100.00;98636.91;2233590;79;21077;-92
2022/10/15 11:38:57;;;;;;;23.80;19.27;;;;;;;19.04;100.00;98638.23;2158425;81;21009;-92
2022/10/15 11:41:58;;;;;;;21.37;17.82;;;;;;;19.08;100.00;98632.73;2234025;78;21017;-91
2022/10/15 11:44:59;;;;;;;19.15;17.00;;;;;;;19.10;100.00;98632.48;2225919;79;21117;-92
2022/10/15 11:48:00;;;;;;;23.73;18.20;;;;;;;19.14;100.00;98631.80;2226327;80;21006;-92
2022/10/15 11:51:00;;;;;;;18.90;16.90;;;;;;;19.12;100.00;98624.59;2223465;79;20970;-93
2022/10/15 11:54:03;;;;;;;19.60;16.75;;;;;;;19.09;100.00;98622.92;2226921;79;20982;-91
2022/10/15 11:57:03;;;;;;;17.27;15.00;;;;;;;19.11;100.00;98620.83;2219646;79;20978;-91
2022/10/15 12:00:04;;;;;;;17.95;14.53;;;;;;;19.15;100.00;98616.67;2226343;80;20970;-93
2022/10/15 12:03:05;;;;;;;16.87;14.98;;;;;;;19.15;100.00;98621.46;2231946;79;21093;-94
2022/10/15 12:06:05;;;;;;;24.10;16.30;;;;;;;19.16;100.00;98612.98;2142445;83;21040;-95
2022/10/15 12:09:06;;;;;;;19.62;15.05;;;;;;;19.17;100.00;98616.72;2137121;82;21460;-95
2022/10/15 12:12:07;;;;;;;18.48;15.68;;;;;;;19.20;100.00;98618.92;2129753;83;21074;-95
2022/10/15 12:15:07;;;;;;;21.17;16.45;;;;;;;19.22;100.00;98625.31;2159788;82;21011;-92
2022/10/15 12:18:08;;;;;;;17.07;15.28;;;;;;;19.24;100.00;98621.37;2160703;82;21028;-93
2022/10/15 12:21:09;;;;;;;18.98;15.83;;;;;;;19.28;100.00;98617.18;2167155;82;21065;-91
2022/10/15 12:24:10;;;;;;;17.60;15.48;;;;;;;19.30;100.00;98611.14;2163588;82;21437;-91
2022/10/15 12:27:10;;;;;;;15.80;14.13;;;;;;;19.32;100.00;98610.38;2135697;81;20916;-90
2022/10/15 12:30:11;;;;;;;19.55;15.60;;;;;;;19.33;100.00;98613.30;2152177;80;20976;-95
2022/10/15 12:33:12;;;;;;;17.32;15.48;;;;;;;19.32;100.00;98607.72;2132094;81;21131;-89
2022/10/15 12:36:12;;;;;;;17.87;13.65;;;;;;;19.32;100.00;98605.59;2103462;84;20970;-90
2022/10/15 12:39:16;;;;;;;15.35;13.75;;;;;;;19.38;100.00;98615.75;2123625;83;20992;-88
2022/10/15 12:42:17;;;;;;;15.98;14.13;;;;;;;19.41;100.00;98607.33;2156346;81;22072;-90
2022/10/15 12:45:21;;;;;;;17.10;14.18;;;;;;;19.40;100.00;98606.53;2144261;82;20989;-89
2022/10/15 12:48:23;;;;;;;13.53;12.25;;;;;;;19.41;100.00;98602.83;2146165;83;21069;-93
2022/10/15 12:51:26;;;;;;;12.43;11.20;;;;;;;19.44;100.00;98603.66;2145853;83;21052;-93
2022/10/15 12:54:26;;;;;;;13.15;11.73;;;;;;;19.42;100.00;98609.74;2131703;84;21050;-92
2022/10/15 12:57:27;;;;;;;12.88;11.68;;;;;;;19.42;100.00;98604.95;2122820;83;21013;-92
2022/10/15 13:00:28;;;;;;;16.27;14.33;;;;;;;19.38;100.00;98605.94;2119071;83;21034;-90
2022/10/15 13:03:29;;;;;;;30.52;21.70;;;;;;;19.36;100.00;98612.02;2091236;85;20992;-91
2022/10/15 13:06:30;;;;;;;39.50;26.55;;;;;;;19.33;100.00;98611.17;2077541;84;21143;-90
2022/10/15 13:09:30;;;;;;;43.87;28.17;;;;;;;19.29;100.00;98612.67;2144170;83;20989;-91
2022/10/15 13:12:31;;;;;;;31.57;20.40;;;;;;;19.21;100.00;98605.13;2121809;83;21000;-92
2022/10/15 13:15:32;;;;;;;26.37;18.98;;;;;;;19.13;100.00;98614.79;2110488;83;21459;-93
2022/10/15 13:18:32;;;;;;;16.95;13.80;;;;;;;19.07;100.00;98609.89;2136014;83;21061;-90
2022/10/15 13:21:33;;;;;;;16.23;14.03;;;;;;;19.03;100.00;98613.55;2149398;81;21016;-90
2022/10/15 13:24:34;;;;;;;15.70;14.10;;;;;;;19.02;100.00;98608.48;2137187;83;20985;-91
2022/10/15 13:27:36;;;;;;;15.58;12.45;;;;;;;19.04;100.00;98610.38;2141344;83;21037;-92
2022/10/15 13:30:37;;;;;;;12.55;11.30;;;;;;;19.10;100.00;98609.41;2118353;83;20994;-93
2022/10/15 13:33:37;;;;;;;13.85;10.13;;;;;;;19.14;100.00;98608.44;2132591;80;21002;-94
2022/10/15 13:36:38;;;;;;;11.22;10.08;;;;;;;19.14;100.00;98607.91;2133251;80;21009;-95
2022/10/15 13:39:38;;;;;;;10.68;9.55;;;;;;;19.08;100.00;98608.05;2132632;80;21559;-92
2022/10/15 13:42:39;;;;;;;22.27;12.95;;;;;;;19.02;100.00;98616.45;2130856;84;21032;-89
2022/10/15 13:45:40;;;;;;;23.70;14.23;;;;;;;18.93;100.00;98612.56;2129135;84;20994;-88